METAR Data
IDs: Format: Raw Decoded Include TAF

Data at: 1731 UTC 19 Sep 2018

KWVL 191656Z AUTO 03009KT 10SM OVC016 14/11 A3000 RMK AO2 SLP185 T01440106 $
KWVL 191612Z AUTO 02008KT 10SM OVC016 14/11 A3000 RMK AO2 $
KWVL 191556Z AUTO 03007KT 10SM OVC014 14/11 A3000 RMK AO2 SLP184 T01390106 $
KWVL 191456Z AUTO 03008KT 10SM OVC010 13/10 A2999 RMK AO2 SLP184 T01280100 51013 $
KWVL 191356Z AUTO 04009KT 10SM OVC010 12/10 A2998 RMK AO2 SLP179 T01220100 $
KWVL 191256Z AUTO 04006KT 10SM OVC010 12/10 A2997 RMK AO2 SLP175 T01170100 $
KWVL 191156Z AUTO 03007KT 10SM OVC008 12/10 A2995 RMK AO2 CIG 007V011 SLP169 60000 70041 T01170100 10122 20111 53019 $
KWVL 191056Z AUTO 03007KT 10SM OVC008 11/10 A2994 RMK AO2 SLP164 T01110100 $
KWVL 190956Z AUTO 03008KT 10SM OVC008 11/11 A2991 RMK AO2 SLP154 T01110106 $
KWVL 190840Z AUTO 03010KT 10SM BKN008 OVC017 12/11 A2989 RMK AO2 $
KWVL 190833Z AUTO 03007KT 10SM SCT008 OVC017 12/11 A2989 RMK AO2 $
KWVL 190756Z AUTO 03009KT 10SM BKN008 OVC015 12/11 A2988 RMK AO2 RAE06 SLP143 P0000 T01170111 $
KWVL 190656Z AUTO 01007KT 5SM -RA BR OVC006 12/11 A2987 RMK AO2 RAB45 CIG 005V010 SLP139 P0000 T01170111 $
KWVL 190556Z AUTO 03010KT 9SM OVC006 12/11 A2985 RMK AO2 SLP134 60041 T01220111 10222 20122 53003 $
KWVL 190456Z AUTO 03010KT 10SM OVC008 13/11 A2985 RMK AO2 CIG 007V013 SLP132 T01280111 402670128 $
KWVL 190451Z AUTO 02011KT 10SM OVC008 13/11 A2985 RMK AO2 CIG 007V013 402670128 $
KWVL 190434Z AUTO 03009KT 10SM OVC010 13/12 A2984 RMK AO2 CIG 008V013 $
KWVL 190415Z AUTO 04010KT 10SM OVC008 13/12 A2984 RMK AO2 $
KWVL 190406Z AUTO 03014KT 10SM OVC010 13/12 A2983 RMK AO2 CIG 006V012 $
KWVL 190356Z AUTO 03010KT 10SM OVC008 13/12 A2984 RMK AO2 CIG 006V011 SLP131 T01330117 $
KWVL 190343Z AUTO 03009KT 10SM BKN008 OVC016 13/12 A2984 RMK AO2 $
KWVL 190315Z AUTO 04010G15KT 10SM SCT007 SCT012 OVC018 14/12 A2984 RMK AO2 $
KWVL 190256Z AUTO 03011KT 10SM OVC007 14/13 A2983 RMK AO2 CIG 005V011 SLP127 60041 T01390128 50017 $
KWVL 190251Z AUTO 04012G16KT 10SM OVC007 14/13 A2983 RMK AO2 CIG 005V010 $
KWVL 190235Z AUTO 04015G20KT 10SM OVC005 14/13 A2982 RMK AO2 $
KWVL 190156Z AUTO 03009KT 10SM OVC007 15/14 A2981 RMK AO2 SLP121 T01500144 $
KWVL 190056Z AUTO 03012G17KT 10SM BKN007 OVC022 17/16 A2978 RMK AO2 WSHFT 0004 LTG DSNT E RAB03E54 CIG 006V011 SLP109 P0041 T01720161 $
KWVL 190049Z AUTO 03011G18KT 10SM -RA BKN007 BKN015 OVC022 17/17 A2977 RMK AO2 WSHFT 0004 LTG DSNT E RAB03 CIG 007V011 PRESRR P0041 $
KWVL 190018Z AUTO 03018G23KT 3SM +RA BR FEW006 BKN016 OVC035 20/19 A2973 RMK AO2 WSHFT 0004 LTG DSNT E RAB03 P0030
KWVL 190007Z AUTO 04013G20KT 2 1/2SM +RA BR FEW008 SCT014 BKN025 22/21 A2972 RMK AO2 LTG DSNT E RAB03 P0014
KWVL 182356Z AUTO 00000KT 10SM SCT037 BKN047 22/21 A2970 RMK AO2 LTG DSNT NE RAB24E53 SLP083 P0000 60000 T02220206 10267 20217 53012
KWVL 182256Z AUTO 00000KT 10SM CLR 22/20 A2969 RMK AO2 LTG DSNT N SLP077 T02220200
KWVL 182156Z AUTO 00000KT 10SM CLR 24/20 A2968 RMK AO2 SLP073 T02440200
KWVL 182056Z AUTO 00000KT 10SM CLR 26/20 A2967 RMK AO2 SLP071 T02610200 56010
KWVL 181956Z AUTO 00000KT 10SM CLR 26/20 A2967 RMK AO2 SLP072 T02610200
KWVL 181856Z AUTO 00000KT 9SM CLR 25/20 A2969 RMK AO2 SLP079 T02500200
KWVL 181841Z AUTO 00000KT 10SM SCT024 25/20 A2970 RMK AO2
KWVL 181817Z AUTO 21003KT 10SM BKN024 26/20 A2969 RMK AO2
KWVL 181756Z AUTO 00000KT 10SM SCT022 24/21 A2970 RMK AO2 SLP081 T02440206 10250 20189 56018
KWVL 181706Z AUTO VRB03KT 10SM SCT014 SCT021 23/20 A2971 RMK AO2
KWVL 181656Z AUTO VRB03KT 10SM BKN014 24/20 A2972 RMK AO2 SLP086 T02390200
KWVL 181556Z AUTO VRB03KT 10SM FEW011 23/20 A2973 RMK AO2 SLP091 T02330200
KWVL 181528Z AUTO VRB03KT 10SM SCT007 22/20 A2974 RMK AO2 $
KWVL 181507Z AUTO VRB04KT 10SM BKN007 22/20 A2975 RMK AO2 $
KWVL 181456Z AUTO 00000KT 10SM SCT007 22/20 A2975 RMK AO2 SLP099 T02170200 58013 $
KWVL 181356Z AUTO 21003KT 10SM CLR 20/19 A2977 RMK AO2 SLP106 T02000189 $
KWVL 181256Z AUTO VRB04KT 10SM CLR 19/18 A2978 RMK AO2 SLP109 T01890183 $
KWVL 181156Z AUTO 22005KT 10SM CLR 18/18 A2979 RMK AO2 SLP113 T01780178 10183 20172 56007 $
KWVL 181056Z AUTO 21004KT 9SM CLR 17/17 A2980 RMK AO2 SLP114 T01720167 $
KWVL 180956Z AUTO 20003KT 10SM CLR 17/17 A2981 RMK AO2 SLP118 T01720167 $
KWVL 180856Z AUTO 00000KT 10SM CLR 18/17 A2981 RMK AO2 SLP120 T01780172 55005 $
KWVL 180756Z AUTO 22006KT 10SM CLR 18/17 A2980 RMK AO2 SLP116 T01780172 $
KWVL 180656Z AUTO 21004KT 10SM CLR 18/17 A2982 RMK AO2 SLP121 T01780172 $
KWVL 180556Z AUTO 21004KT 10SM CLR 18/17 A2983 RMK AO2 SLP124 T01830172 10217 20178 58006 $